Monroe, Indiana
Current Conditions -  °F | °C
As of 9:54 PM on Friday 21 Nov 2014 (Local Time) from KFWA Reporting Station
Few Clouds Few Clouds  
Wind Chill: 10°   Ceiling: Unl
Heat Index: 19°   Visibility: 10mi
Dew Point: 11°   Wind: 7mph
Humidity: 71%   Direction: 170°S
Pressure: 30.37"   Gusts: NA
Location:  40.75°N, 84.94°W
Report Text: KFWA 220254Z 17006KT 10SM FEW250 M07/M12 A3037 RMK AO2 SLP297 T10721117 58013
Loading
Personal Weather Stations






























Interactive Weather Map New forecast layout! Learn more

10-Day Weather Forecast

Advertisements
Track Severe Weather on mobile